createdAt,value
2023-08-15T00:02:06.391Z,86.40
2023-08-15T00:04:37.226Z,86.70
2023-08-15T00:07:11.724Z,87.20
2023-08-15T00:09:38.593Z,86.90
2023-08-15T00:12:08.982Z,87.10
2023-08-15T00:14:35.723Z,87.30
2023-08-15T00:17:03.156Z,87.70
2023-08-15T00:19:30.045Z,87.90
2023-08-15T00:21:57.260Z,88.00
2023-08-15T00:24:24.388Z,86.90
2023-08-15T00:26:51.606Z,86.70
2023-08-15T00:29:18.773Z,85.00
2023-08-15T00:31:45.535Z,84.20
2023-08-15T00:34:12.730Z,83.40
2023-08-15T00:36:39.858Z,81.90
2023-08-15T00:39:07.052Z,81.10
2023-08-15T00:41:33.850Z,80.70
2023-08-15T00:44:01.140Z,80.40
2023-08-15T00:46:29.468Z,80.30
2023-08-15T00:48:57.253Z,79.90
2023-08-15T00:51:24.341Z,79.70
2023-08-15T00:53:52.704Z,78.60
2023-08-15T00:56:20.204Z,79.30
2023-08-15T00:58:47.737Z,79.90
2023-08-15T01:01:22.780Z,80.10
2023-08-15T01:03:50.549Z,80.00
2023-08-15T01:06:17.854Z,80.50
2023-08-15T01:08:45.288Z,81.20
2023-08-15T01:11:12.383Z,81.30
2023-08-15T01:14:01.422Z,81.90
2023-08-15T01:16:36.640Z,82.40
2023-08-15T01:19:25.086Z,82.70
2023-08-15T01:21:55.812Z,83.30
2023-08-15T01:24:24.122Z,83.40
2023-08-15T01:26:50.908Z,83.20
2023-08-15T01:29:18.060Z,82.90
2023-08-15T01:32:05.869Z,82.90
2023-08-15T01:34:42.006Z,82.50
2023-08-15T01:37:15.807Z,82.20
2023-08-15T01:39:45.092Z,82.80
2023-08-15T01:42:13.337Z,82.50
2023-08-15T01:44:40.534Z,82.60
2023-08-15T01:47:07.727Z,83.20
2023-08-15T01:49:34.880Z,82.50
2023-08-15T01:52:01.738Z,82.40
2023-08-15T01:54:28.928Z,82.20
2023-08-15T01:56:56.096Z,82.10
2023-08-15T01:59:23.229Z,81.50
2023-08-15T02:01:50.217Z,81.90
2023-08-15T02:04:17.363Z,81.70
2023-08-15T02:06:44.110Z,80.90
2023-08-15T02:09:11.308Z,80.70
2023-08-15T02:11:38.097Z,80.90
2023-08-15T02:14:05.319Z,80.70
2023-08-15T02:16:32.160Z,80.60
2023-08-15T02:18:59.316Z,80.60
2023-08-15T02:21:26.068Z,80.90
2023-08-15T02:23:52.967Z,80.80
2023-08-15T02:26:20.524Z,80.10
2023-08-15T02:28:47.710Z,78.90
2023-08-15T02:31:14.476Z,77.60
2023-08-15T02:33:42.952Z,77.40
2023-08-15T02:36:09.837Z,76.60
2023-08-15T02:38:37.161Z,76.20
2023-08-15T02:41:04.652Z,76.60
2023-08-15T02:43:31.434Z,76.50
2023-08-15T02:45:58.681Z,76.90
2023-08-15T02:48:25.444Z,77.00
2023-08-15T02:50:52.185Z,77.20
2023-08-15T02:53:19.422Z,76.70
2023-08-15T02:55:51.000Z,77.30
2023-08-15T02:58:18.577Z,77.40
2023-08-15T03:00:45.453Z,77.70
2023-08-15T03:03:12.737Z,79.00
2023-08-15T03:05:39.855Z,80.70
2023-08-15T03:08:07.497Z,81.00
2023-08-15T03:10:36.750Z,81.40
2023-08-15T03:13:04.911Z,81.50
2023-08-15T03:15:31.686Z,81.00
2023-08-15T03:17:59.494Z,80.60
2023-08-15T03:20:27.460Z,80.40
2023-08-15T03:22:54.282Z,80.60
2023-08-15T03:25:21.437Z,81.30
2023-08-15T03:27:48.254Z,81.60
2023-08-15T03:30:15.490Z,81.60
2023-08-15T03:32:42.384Z,81.60
2023-08-15T03:35:09.620Z,81.90
2023-08-15T03:37:36.847Z,82.60
2023-08-15T03:40:05.533Z,83.30
2023-08-15T03:42:32.629Z,83.70
2023-08-15T03:44:59.403Z,84.20
2023-08-15T03:47:26.807Z,84.60
2023-08-15T03:49:53.629Z,85.00
2023-08-15T03:52:20.710Z,85.30
2023-08-15T03:54:47.931Z,86.00
2023-08-15T03:57:14.706Z,86.60
2023-08-15T03:59:41.960Z,86.70
2023-08-15T04:02:09.176Z,86.70
2023-08-15T04:04:35.945Z,87.00
2023-08-15T04:07:03.241Z,87.40
2023-08-15T04:09:30.382Z,88.00
2023-08-15T04:11:57.147Z,88.40
2023-08-15T04:14:24.306Z,88.20
2023-08-15T04:16:51.132Z,88.30
2023-08-15T04:19:18.307Z,88.30
2023-08-15T04:21:45.067Z,88.70
2023-08-15T04:24:11.882Z,88.80
2023-08-15T04:26:39.034Z,89.20
2023-08-15T04:29:05.831Z,89.70
2023-08-15T04:31:33.812Z,89.50
2023-08-15T04:34:00.651Z,89.80
2023-08-15T04:36:27.793Z,89.80
2023-08-15T04:38:54.540Z,89.00
2023-08-15T04:41:21.685Z,88.50
2023-08-15T04:43:48.751Z,88.60
2023-08-15T04:46:15.889Z,87.70
2023-08-15T04:48:42.758Z,87.80
2023-08-15T04:51:09.658Z,86.80
2023-08-15T04:53:36.781Z,87.20
2023-08-15T04:56:04.025Z,85.40
2023-08-15T04:58:30.779Z,85.90
2023-08-15T05:00:57.981Z,85.00
2023-08-15T05:03:24.738Z,84.20
2023-08-15T05:05:51.861Z,83.80
2023-08-15T05:08:19.040Z,83.70
2023-08-15T05:10:46.169Z,82.90
2023-08-15T05:13:13.554Z,82.60
2023-08-15T05:15:40.412Z,82.20
2023-08-15T05:18:07.301Z,82.50
2023-08-15T05:20:35.710Z,82.70
2023-08-15T05:23:02.459Z,82.00
2023-08-15T05:25:29.682Z,82.00
2023-08-15T05:27:57.072Z,79.70
2023-08-15T05:30:23.911Z,78.70
2023-08-15T05:32:51.134Z,79.80
2023-08-15T05:35:17.996Z,78.70
2023-08-15T05:37:44.768Z,78.50
2023-08-15T05:40:12.087Z,79.00
2023-08-15T05:42:38.980Z,78.20
2023-08-15T05:45:06.632Z,78.10
2023-08-15T05:47:34.024Z,78.20
2023-08-15T05:50:00.884Z,77.50
2023-08-15T05:52:28.537Z,77.10
2023-08-15T05:54:56.789Z,76.50
2023-08-15T05:57:24.366Z,76.40
2023-08-15T05:59:51.522Z,75.60
2023-08-15T06:02:20.255Z,75.10
2023-08-15T06:04:47.471Z,74.50
2023-08-15T06:07:17.211Z,73.20
2023-08-15T06:09:44.757Z,73.40
2023-08-15T06:12:11.595Z,72.80
2023-08-15T06:14:42.313Z,73.40
2023-08-15T06:17:09.605Z,71.80
2023-08-15T06:19:36.392Z,72.90
2023-08-15T06:22:04.522Z,72.40
2023-08-15T06:24:32.693Z,71.60
2023-08-15T06:26:59.460Z,70.90
2023-08-15T06:29:26.810Z,69.30
2023-08-15T06:31:54.860Z,69.10
2023-08-15T06:34:21.719Z,67.40
2023-08-15T06:36:48.482Z,67.30
2023-08-15T06:39:15.636Z,66.00
2023-08-15T06:41:42.401Z,65.50
2023-08-15T06:44:13.007Z,66.60
2023-08-15T06:46:40.620Z,65.00
2023-08-15T06:49:07.696Z,64.30
2023-08-15T06:51:34.599Z,63.10
2023-08-15T06:54:01.367Z,62.50
2023-08-15T06:56:28.483Z,62.30
2023-08-15T06:58:55.242Z,61.70
2023-08-15T07:01:22.451Z,61.90
2023-08-15T07:03:50.061Z,61.30
2023-08-15T07:06:17.811Z,60.20
2023-08-15T07:08:49.273Z,60.40
2023-08-15T07:11:16.115Z,56.90
2023-08-15T07:13:43.296Z,55.30
2023-08-15T07:16:10.488Z,53.30
2023-08-15T07:18:37.274Z,53.10
2023-08-15T07:21:04.787Z,52.90
2023-08-15T07:23:32.456Z,50.80
2023-08-15T07:26:01.822Z,51.20
2023-08-15T07:28:29.964Z,49.00
2023-08-15T07:30:57.231Z,48.90
2023-08-15T07:33:24.327Z,48.30
2023-08-15T07:35:51.153Z,45.80
2023-08-15T07:38:18.397Z,45.60
2023-08-15T07:40:45.267Z,45.30
2023-08-15T07:43:12.421Z,43.20
2023-08-15T07:45:39.288Z,43.60
2023-08-15T07:48:06.649Z,42.60
2023-08-15T07:50:33.511Z,42.40
2023-08-15T07:53:01.011Z,43.00
2023-08-15T07:55:30.502Z,43.20
2023-08-15T07:57:59.612Z,42.00
2023-08-15T08:00:26.688Z,42.30
2023-08-15T08:02:53.971Z,41.70
2023-08-15T08:05:23.380Z,41.20
2023-08-15T08:07:50.806Z,40.10
2023-08-15T08:10:17.979Z,40.50
2023-08-15T08:12:46.930Z,41.00
2023-08-15T08:15:14.681Z,41.80
2023-08-15T08:17:41.906Z,40.60
2023-08-15T08:20:14.080Z,39.30
2023-08-15T08:22:41.097Z,37.80
2023-08-15T08:25:21.137Z,38.70
2023-08-15T08:27:49.181Z,39.70
2023-08-15T08:30:21.531Z,38.60
2023-08-15T08:32:48.594Z,38.50
2023-08-15T08:35:19.107Z,39.00
2023-08-15T08:37:48.406Z,38.30
2023-08-15T08:40:16.817Z,38.70
2023-08-15T08:42:44.340Z,37.80
2023-08-15T08:45:12.118Z,37.70
2023-08-15T08:47:41.032Z,38.10
2023-08-15T08:50:12.156Z,38.10
2023-08-15T08:52:43.693Z,38.10
2023-08-15T08:55:11.557Z,37.20
2023-08-15T08:57:40.385Z,38.30
2023-08-15T09:00:09.407Z,38.20
2023-08-15T09:02:36.794Z,36.70
2023-08-15T09:05:05.811Z,37.00
2023-08-15T09:07:34.743Z,37.10
2023-08-15T09:10:01.735Z,36.90
2023-08-15T09:12:39.133Z,37.00
2023-08-15T09:15:08.657Z,37.10
2023-08-15T09:17:36.406Z,36.70
2023-08-15T09:20:17.697Z,37.00
2023-08-15T09:22:47.027Z,37.90
2023-08-15T09:25:21.158Z,37.40
2023-08-15T09:27:48.312Z,37.50
2023-08-15T09:30:16.862Z,37.20
2023-08-15T09:32:46.625Z,38.10
2023-08-15T09:35:16.604Z,39.00
2023-08-15T09:37:47.652Z,39.30
2023-08-15T09:40:19.997Z,40.90
2023-08-15T09:42:47.137Z,40.90
2023-08-15T09:45:16.029Z,42.50
2023-08-15T09:47:44.507Z,43.30
2023-08-15T09:50:14.234Z,43.60
2023-08-15T09:52:43.268Z,43.40
2023-08-15T09:55:15.982Z,44.10
2023-08-15T09:57:44.210Z,44.50
2023-08-15T10:00:14.403Z,44.60
2023-08-15T10:02:47.303Z,42.90
2023-08-15T10:05:19.547Z,44.50
2023-08-15T10:07:47.295Z,44.40
2023-08-15T10:10:16.563Z,44.80
2023-08-15T10:12:44.922Z,43.60
2023-08-15T10:15:13.344Z,43.10
2023-08-15T10:17:40.941Z,44.20
2023-08-15T10:20:12.369Z,43.70
2023-08-15T10:22:40.817Z,44.90
2023-08-15T10:25:36.773Z,45.20
2023-08-15T10:28:12.398Z,44.80
2023-08-15T10:30:52.621Z,45.10
2023-08-15T10:33:27.980Z,46.40
2023-08-15T10:35:57.874Z,46.20
2023-08-15T10:38:31.866Z,46.00
2023-08-15T10:41:03.967Z,47.20
2023-08-15T10:43:34.486Z,46.20
2023-08-15T10:46:03.175Z,45.70
2023-08-15T10:51:24.404Z,45.40
2023-08-15T10:53:53.146Z,46.30
2023-08-15T10:56:21.958Z,46.20
2023-08-15T10:58:49.870Z,47.10
2023-08-15T11:01:19.326Z,47.20
2023-08-15T11:03:49.032Z,46.60
2023-08-15T11:06:15.995Z,46.70
2023-08-15T11:08:44.974Z,46.70
2023-08-15T11:11:12.391Z,48.00
2023-08-15T11:13:41.642Z,46.80
2023-08-15T11:16:09.527Z,46.00
2023-08-15T11:18:37.971Z,46.40
2023-08-15T11:21:10.406Z,46.50
2023-08-15T11:23:37.952Z,46.60
2023-08-15T11:26:09.604Z,44.10
2023-08-15T11:28:37.790Z,45.10
2023-08-15T11:31:20.049Z,45.20
2023-08-15T11:33:54.045Z,43.10
2023-08-15T11:36:23.227Z,43.60
2023-08-15T11:38:50.600Z,41.60
2023-08-15T11:41:17.817Z,43.40
2023-08-15T11:43:46.254Z,43.70
2023-08-15T11:46:13.453Z,43.20
2023-08-15T11:48:47.731Z,42.90
2023-08-15T11:51:23.988Z,43.60
2023-08-15T11:53:52.253Z,42.60
2023-08-15T11:56:19.426Z,41.90
2023-08-15T11:58:47.459Z,42.50
2023-08-15T12:01:14.464Z,42.50
2023-08-15T12:03:41.993Z,42.80
2023-08-15T12:06:12.024Z,43.40
2023-08-15T12:08:40.604Z,42.40
2023-08-15T12:11:09.471Z,42.20
2023-08-15T12:13:41.631Z,43.50
2023-08-15T12:16:10.255Z,44.60
2023-08-15T12:18:37.473Z,43.70
2023-08-15T12:21:10.583Z,42.90
2023-08-15T12:23:39.276Z,42.50
2023-08-15T12:26:06.511Z,42.00
2023-08-15T12:28:37.365Z,43.20
2023-08-15T12:31:04.768Z,42.00
2023-08-15T12:33:41.917Z,42.80
2023-08-15T12:36:14.677Z,43.60
2023-08-15T12:38:41.791Z,43.10
2023-08-15T12:41:10.305Z,43.50
2023-08-15T12:43:37.687Z,42.70
2023-08-15T12:46:04.583Z,42.10
2023-08-15T12:48:31.870Z,41.10
2023-08-15T12:51:00.724Z,41.90
2023-08-15T12:53:28.190Z,41.40
2023-08-15T12:55:55.556Z,41.40
2023-08-15T12:58:22.464Z,41.80
2023-08-15T13:00:50.362Z,42.00
2023-08-15T13:03:19.295Z,42.20
2023-08-15T13:05:47.672Z,41.70
2023-08-15T13:08:16.963Z,41.20
2023-08-15T13:10:44.835Z,41.50
2023-08-15T13:13:12.014Z,42.00
2023-08-15T13:15:39.038Z,40.80
2023-08-15T13:18:06.455Z,42.40
2023-08-15T13:20:34.225Z,43.30
2023-08-15T13:23:01.584Z,42.90
2023-08-15T13:25:28.647Z,42.30
2023-08-15T13:27:55.452Z,42.50
2023-08-15T13:30:22.428Z,42.50
2023-08-15T13:32:49.543Z,42.20
2023-08-15T13:35:16.382Z,41.40
2023-08-15T13:37:43.440Z,42.20
2023-08-15T13:40:11.456Z,40.90
2023-08-15T13:42:40.254Z,41.40
2023-08-15T13:45:10.073Z,40.50
2023-08-15T13:47:40.599Z,38.40
2023-08-15T13:50:08.400Z,39.40
2023-08-15T13:52:38.446Z,41.30
2023-08-15T13:55:06.269Z,41.00
2023-08-15T13:57:33.831Z,40.40
2023-08-15T14:00:01.802Z,40.80
2023-08-15T14:02:29.643Z,41.00
2023-08-15T14:04:56.844Z,37.70
2023-08-15T14:07:23.942Z,37.30
2023-08-15T14:09:53.320Z,38.40
2023-08-15T14:12:24.049Z,37.40
2023-08-15T14:14:51.721Z,37.80
2023-08-15T14:17:18.590Z,38.40
2023-08-15T14:19:45.740Z,36.90
2023-08-15T14:22:12.866Z,36.90
2023-08-15T14:24:43.881Z,36.60
2023-08-15T14:27:11.023Z,37.30
2023-08-15T14:29:37.789Z,37.40
2023-08-15T14:32:07.778Z,37.50
2023-08-15T14:34:34.988Z,38.00
2023-08-15T14:37:02.245Z,37.40
2023-08-15T14:39:29.410Z,37.70
2023-08-15T14:41:56.257Z,38.40
2023-08-15T14:44:23.355Z,37.80
2023-08-15T14:46:50.545Z,37.70
2023-08-15T14:49:17.396Z,37.30
2023-08-15T14:51:44.598Z,38.70
2023-08-15T14:54:13.580Z,38.40
2023-08-15T14:56:41.289Z,38.50
2023-08-15T14:59:08.136Z,37.90
2023-08-15T15:01:35.361Z,37.10
2023-08-15T15:04:02.294Z,37.00
2023-08-15T15:06:29.463Z,36.70
2023-08-15T15:08:56.302Z,37.20
2023-08-15T15:11:23.449Z,37.00
2023-08-15T15:13:50.397Z,36.30
2023-08-15T15:16:17.548Z,36.90
2023-08-15T15:18:44.405Z,37.40
2023-08-15T15:21:11.249Z,37.00
2023-08-15T15:23:41.187Z,37.30
2023-08-15T15:26:08.341Z,37.90
2023-08-15T15:28:35.994Z,37.50
2023-08-15T15:31:02.746Z,38.10
2023-08-15T15:33:30.970Z,38.30
2023-08-15T15:35:57.798Z,37.90
2023-08-15T15:38:24.682Z,38.10
2023-08-15T15:40:52.075Z,37.80
2023-08-15T15:43:18.945Z,38.50
2023-08-15T15:45:45.767Z,39.20
2023-08-15T15:48:13.418Z,38.90
2023-08-15T15:50:41.742Z,38.30
2023-08-15T15:53:09.005Z,38.70
2023-08-15T15:55:35.845Z,39.00
2023-08-15T15:58:03.089Z,38.90
2023-08-15T16:00:29.910Z,39.00
2023-08-15T16:02:57.095Z,39.30
2023-08-15T16:05:24.068Z,38.90
2023-08-15T16:07:51.227Z,39.20
2023-08-15T16:10:18.638Z,39.40
2023-08-15T16:12:45.641Z,39.20
2023-08-15T16:15:12.867Z,38.80
2023-08-15T16:17:39.716Z,40.20
2023-08-15T16:20:07.700Z,40.00
2023-08-15T16:22:34.829Z,39.10
2023-08-15T16:25:01.670Z,39.30
2023-08-15T16:27:28.477Z,39.80
2023-08-15T16:30:03.192Z,39.70
2023-08-15T16:32:38.635Z,39.60
2023-08-15T16:35:06.192Z,39.30
2023-08-15T16:37:33.128Z,39.60
2023-08-15T16:39:59.893Z,39.40
2023-08-15T16:42:26.965Z,39.60
2023-08-15T16:44:54.134Z,40.00
2023-08-15T16:47:22.670Z,40.60
2023-08-15T16:49:49.836Z,40.40
2023-08-15T16:52:16.594Z,40.60
2023-08-15T16:54:43.392Z,41.00
2023-08-15T16:57:10.224Z,41.20
2023-08-15T16:59:36.996Z,42.00
2023-08-15T17:02:03.863Z,42.70
2023-08-15T17:04:31.045Z,42.80
2023-08-15T17:06:58.255Z,43.00
2023-08-15T17:09:26.013Z,44.00
2023-08-15T17:11:53.208Z,43.70
2023-08-15T17:14:19.992Z,43.70
2023-08-15T17:16:47.135Z,44.20
2023-08-15T17:19:13.953Z,44.30
2023-08-15T17:21:41.115Z,44.90
2023-08-15T17:24:08.090Z,45.20
2023-08-15T17:26:35.286Z,45.50
2023-08-15T17:29:02.324Z,46.70
2023-08-15T17:31:29.180Z,47.20
2023-08-15T17:33:56.437Z,47.50
2023-08-15T17:36:25.088Z,47.90
2023-08-15T17:38:51.971Z,48.50
2023-08-15T17:41:19.793Z,49.20
2023-08-15T17:43:46.580Z,49.70
2023-08-15T17:46:14.796Z,50.00
2023-08-15T17:48:42.078Z,50.10
2023-08-15T17:51:09.261Z,50.40
2023-08-15T17:53:36.020Z,50.80
2023-08-15T17:56:04.185Z,51.00
2023-08-15T17:58:50.273Z,51.20
2023-08-15T18:01:18.448Z,51.80
2023-08-15T18:03:46.356Z,52.00
2023-08-15T18:06:13.768Z,52.20
2023-08-15T18:08:40.950Z,52.60
2023-08-15T18:11:07.882Z,53.10
2023-08-15T18:13:37.609Z,53.40
2023-08-15T18:16:05.315Z,53.60
2023-08-15T18:18:32.112Z,53.80
2023-08-15T18:20:59.278Z,53.90
2023-08-15T18:23:26.536Z,54.20
2023-08-15T18:25:53.871Z,54.60
2023-08-15T18:28:20.619Z,54.90
2023-08-15T18:30:48.082Z,55.10
2023-08-15T18:33:15.599Z,55.30
2023-08-15T18:35:43.503Z,55.70
2023-08-15T18:38:10.440Z,56.00
2023-08-15T18:40:40.103Z,56.20
2023-08-15T18:43:09.069Z,56.40
2023-08-15T18:45:38.026Z,56.50
2023-08-15T18:48:05.227Z,56.70
2023-08-15T18:50:32.562Z,57.10
2023-08-15T18:52:59.305Z,57.60
2023-08-15T18:55:26.509Z,58.30
2023-08-15T18:57:53.415Z,58.50
2023-08-15T19:00:22.107Z,58.50
2023-08-15T19:02:49.591Z,58.50
2023-08-15T19:05:16.880Z,59.00
2023-08-15T19:07:44.243Z,59.00
2023-08-15T19:10:11.506Z,59.10
2023-08-15T19:12:38.633Z,59.20
2023-08-15T19:15:06.499Z,59.20
2023-08-15T19:17:34.038Z,59.30
2023-08-15T19:20:01.772Z,59.70
2023-08-15T19:22:28.977Z,59.80
2023-08-15T19:24:55.776Z,60.40
2023-08-15T19:27:22.997Z,60.70
2023-08-15T19:29:50.936Z,61.20
2023-08-15T19:32:18.134Z,61.60
2023-08-15T19:34:49.662Z,62.50
2023-08-15T19:37:23.394Z,62.00
2023-08-15T19:39:58.584Z,62.10
2023-08-15T19:42:25.373Z,62.80
2023-08-15T19:44:52.888Z,62.60
2023-08-15T19:47:20.104Z,63.30
2023-08-15T19:49:46.890Z,63.30
2023-08-15T19:52:14.993Z,63.50
2023-08-15T19:54:42.145Z,63.70
2023-08-15T19:57:08.896Z,64.20
2023-08-15T19:59:35.714Z,65.10
2023-08-15T20:02:02.498Z,64.50
2023-08-15T20:04:29.851Z,64.70
2023-08-15T20:06:56.801Z,65.10
2023-08-15T20:09:24.054Z,65.20
2023-08-15T20:11:51.270Z,65.30
2023-08-15T20:14:18.977Z,66.10
2023-08-15T20:16:46.978Z,66.50
2023-08-15T20:19:14.144Z,66.70
2023-08-15T20:21:41.679Z,67.00
2023-08-15T20:24:09.770Z,66.80
2023-08-15T20:26:36.639Z,67.20
2023-08-15T20:29:03.616Z,67.60
2023-08-15T20:31:31.357Z,68.00
2023-08-15T20:34:00.951Z,68.40
2023-08-15T20:36:27.814Z,68.90
2023-08-15T20:38:55.102Z,69.00
2023-08-15T20:41:22.585Z,69.30
2023-08-15T20:43:49.404Z,69.80
2023-08-15T20:46:16.288Z,70.20
2023-08-15T20:48:43.602Z,70.60
2023-08-15T20:51:11.996Z,70.80
2023-08-15T20:53:39.050Z,71.00
2023-08-15T20:56:05.925Z,70.80
2023-08-15T20:58:33.293Z,71.10
2023-08-15T21:01:00.184Z,71.40
2023-08-15T21:03:28.994Z,71.80
2023-08-15T21:05:55.755Z,71.80
2023-08-15T21:08:22.554Z,72.00
2023-08-15T21:10:49.398Z,72.20
2023-08-15T21:13:18.555Z,72.60
2023-08-15T21:15:46.069Z,73.00
2023-08-15T21:18:12.966Z,73.20
2023-08-15T21:20:41.331Z,73.10
2023-08-15T21:23:08.487Z,73.20
2023-08-15T21:25:35.917Z,73.70
2023-08-15T21:28:03.550Z,74.00
2023-08-15T21:30:30.892Z,74.00
2023-08-15T21:32:57.718Z,74.40
2023-08-15T21:35:24.896Z,74.70
2023-08-15T21:37:54.642Z,74.60
2023-08-15T21:40:21.945Z,74.50
2023-08-15T21:42:49.107Z,74.40
2023-08-15T21:45:17.026Z,75.20
2023-08-15T21:47:45.372Z,75.00
2023-08-15T21:50:12.300Z,75.20
2023-08-15T21:52:40.380Z,75.40
2023-08-15T21:55:07.654Z,75.30
2023-08-15T21:57:34.762Z,75.50
2023-08-15T22:00:01.943Z,75.50
2023-08-15T22:02:29.529Z,75.70
2023-08-15T22:04:57.096Z,76.20
2023-08-15T22:07:26.234Z,76.20
2023-08-15T22:09:53.571Z,76.90
2023-08-15T22:12:21.146Z,77.50
2023-08-15T22:14:50.631Z,77.90
2023-08-15T22:17:19.356Z,78.10
2023-08-15T22:19:52.164Z,78.00
2023-08-15T22:22:22.694Z,78.60
2023-08-15T22:25:04.563Z,79.20
2023-08-15T22:27:36.794Z,79.40
2023-08-15T22:30:05.105Z,79.80
2023-08-15T22:32:33.626Z,79.70
2023-08-15T22:35:00.985Z,79.70
2023-08-15T22:37:29.682Z,80.30
2023-08-15T22:39:56.932Z,80.80
2023-08-15T22:42:23.743Z,80.50
2023-08-15T22:44:50.896Z,80.50
2023-08-15T22:47:18.139Z,81.10
2023-08-15T22:49:44.887Z,81.40
2023-08-15T22:52:11.761Z,81.40
2023-08-15T22:54:38.539Z,81.60
2023-08-15T22:57:05.637Z,82.40
2023-08-15T22:59:32.418Z,81.50
2023-08-15T23:01:59.789Z,81.50
2023-08-15T23:04:26.613Z,81.60
2023-08-15T23:06:53.787Z,81.40
2023-08-15T23:09:20.571Z,82.00
2023-08-15T23:11:48.339Z,81.80
2023-08-15T23:14:15.563Z,81.90
2023-08-15T23:16:42.885Z,82.00
2023-08-15T23:19:09.677Z,83.10
2023-08-15T23:21:36.897Z,83.50
2023-08-15T23:24:05.786Z,83.60
2023-08-15T23:26:32.547Z,83.60
2023-08-15T23:28:59.803Z,83.50
2023-08-15T23:31:34.920Z,83.80
2023-08-15T23:34:05.698Z,84.70
2023-08-15T23:36:33.785Z,84.90
2023-08-15T23:39:01.314Z,84.70
2023-08-15T23:41:29.167Z,84.70
2023-08-15T23:43:55.934Z,84.90
2023-08-15T23:46:25.456Z,85.60
2023-08-15T23:48:53.161Z,85.90
2023-08-15T23:51:19.958Z,86.00
2023-08-15T23:53:48.628Z,85.60
2023-08-15T23:56:18.897Z,86.30
2023-08-15T23:58:46.650Z,86.20
